createdAt,value
2022-12-14T00:00:33.892Z,26.00
2022-12-14T00:01:37.323Z,26.80
2022-12-14T00:02:39.538Z,26.15
2022-12-14T00:03:45.005Z,27.23
2022-12-14T00:04:48.276Z,26.10
2022-12-14T00:05:50.388Z,26.88
2022-12-14T00:06:53.534Z,23.98
2022-12-14T00:07:55.783Z,25.88
2022-12-14T00:09:00.985Z,25.55
2022-12-14T00:10:03.158Z,24.00
2022-12-14T00:11:06.902Z,25.08
2022-12-14T00:12:09.517Z,27.90
2022-12-14T00:13:16.040Z,26.13
2022-12-14T00:14:18.160Z,23.88
2022-12-14T00:15:21.353Z,24.58
2022-12-14T00:16:24.447Z,24.80
2022-12-14T00:17:27.567Z,24.67
2022-12-14T00:18:30.660Z,22.92
2022-12-14T00:19:36.668Z,25.73
2022-12-14T00:20:38.691Z,23.48
2022-12-14T00:21:41.951Z,22.80
2022-12-14T00:22:44.269Z,22.80
2022-12-14T00:23:50.239Z,23.70
2022-12-14T00:24:52.404Z,23.92
2022-12-14T00:25:55.522Z,25.95
2022-12-14T00:26:58.559Z,24.73
2022-12-14T00:28:00.681Z,27.75
2022-12-14T00:29:04.257Z,24.10
2022-12-14T00:30:07.476Z,22.15
2022-12-14T00:31:11.259Z,22.48
2022-12-14T00:32:14.426Z,24.98
2022-12-14T00:33:16.520Z,26.00
2022-12-14T00:34:19.839Z,24.02
2022-12-14T00:35:24.012Z,20.98
2022-12-14T00:36:27.207Z,21.52
2022-12-14T00:37:29.318Z,23.90
2022-12-14T00:38:32.565Z,25.55
2022-12-14T00:39:34.628Z,20.67
2022-12-14T00:40:37.773Z,24.75
2022-12-14T00:41:39.842Z,24.50
2022-12-14T00:42:43.059Z,22.02
2022-12-14T00:43:45.129Z,24.80
2022-12-14T00:44:52.841Z,24.17
2022-12-14T00:45:55.719Z,21.67
2022-12-14T00:46:59.600Z,26.10
2022-12-14T00:48:02.304Z,24.15
2022-12-14T00:49:05.550Z,21.95
2022-12-14T00:50:08.926Z,26.13
2022-12-14T00:51:17.151Z,25.30
2022-12-14T00:52:19.559Z,22.02
2022-12-14T00:53:23.446Z,24.20
2022-12-14T00:54:25.505Z,24.70
2022-12-14T00:55:28.536Z,23.55
2022-12-14T00:56:30.586Z,27.33
2022-12-14T00:57:33.810Z,24.25
2022-12-14T00:58:36.381Z,27.23
2022-12-14T00:59:39.435Z,26.58
2022-12-14T01:00:41.612Z,26.13
2022-12-14T01:01:44.713Z,26.83
2022-12-14T01:02:51.074Z,28.27
2022-12-14T01:04:14.737Z,26.40
2022-12-14T01:05:17.134Z,23.20
2022-12-14T01:06:23.436Z,26.85
2022-12-14T01:07:25.569Z,24.50
2022-12-14T01:08:35.503Z,21.83
2022-12-14T01:09:38.063Z,23.90
2022-12-14T01:10:41.381Z,27.58
2022-12-14T01:11:45.062Z,27.80
2022-12-14T01:12:47.326Z,23.42
2022-12-14T01:13:50.343Z,24.10
2022-12-14T01:14:52.470Z,26.98
2022-12-14T01:15:55.554Z,23.33
2022-12-14T01:16:57.685Z,23.75
2022-12-14T01:18:00.744Z,22.83
2022-12-14T01:19:03.314Z,24.58
2022-12-14T01:20:07.504Z,24.02
2022-12-14T01:21:11.921Z,24.27
2022-12-14T01:22:16.515Z,25.35
2022-12-14T01:23:18.576Z,23.38
2022-12-14T01:24:21.919Z,30.92
2022-12-14T01:25:23.984Z,25.00
2022-12-14T01:26:28.375Z,24.77
2022-12-14T01:27:30.718Z,25.45
2022-12-14T01:28:35.153Z,26.50
2022-12-14T01:29:38.255Z,26.63
2022-12-14T01:30:40.315Z,25.58
2022-12-14T01:31:43.824Z,25.90
2022-12-14T01:32:50.562Z,25.02
2022-12-14T01:33:54.384Z,24.90
2022-12-14T01:34:56.389Z,24.15
2022-12-14T01:36:04.250Z,24.25
2022-12-14T01:37:07.391Z,21.67
2022-12-14T01:38:10.864Z,25.00
2022-12-14T01:39:16.915Z,26.08
2022-12-14T01:40:19.089Z,23.13
2022-12-14T01:41:26.305Z,25.85
2022-12-14T01:42:29.618Z,24.70
2022-12-14T01:43:49.055Z,29.52
2022-12-14T01:44:58.001Z,25.08
2022-12-14T01:46:00.145Z,24.98
2022-12-14T01:47:12.389Z,26.25
2022-12-14T01:48:15.204Z,23.35
2022-12-14T01:49:24.574Z,23.95
2022-12-14T01:50:30.144Z,29.08
2022-12-14T01:51:34.476Z,23.13
2022-12-14T01:52:40.490Z,23.75
2022-12-14T01:53:45.120Z,23.30
2022-12-14T01:54:53.109Z,24.30
2022-12-14T01:55:57.624Z,25.85
2022-12-14T01:57:00.123Z,24.13
2022-12-14T01:58:08.373Z,24.92
2022-12-14T01:59:14.565Z,27.98
2022-12-14T02:00:18.152Z,24.05
2022-12-14T02:01:20.448Z,26.70
2022-12-14T02:02:24.484Z,29.38
2022-12-14T02:03:31.079Z,25.58
2022-12-14T02:04:37.347Z,24.50
2022-12-14T02:05:44.517Z,27.92
2022-12-14T02:06:48.973Z,30.50
2022-12-14T02:07:55.268Z,26.27
2022-12-14T02:08:59.841Z,26.83
2022-12-14T02:10:05.077Z,24.55
2022-12-14T02:11:07.429Z,24.90
2022-12-14T02:12:13.927Z,23.80
2022-12-14T02:13:20.606Z,27.75
2022-12-14T02:14:23.920Z,28.35
2022-12-14T02:15:26.090Z,25.38
2022-12-14T02:16:29.599Z,25.52
2022-12-14T02:17:31.664Z,28.23
2022-12-14T02:18:35.399Z,26.88
2022-12-14T02:19:38.019Z,26.05
2022-12-14T02:20:49.999Z,26.45
2022-12-14T02:22:19.997Z,27.77
2022-12-14T02:23:51.782Z,26.52
2022-12-14T02:25:35.082Z,21.48
2022-12-14T02:27:05.550Z,25.50
2022-12-14T02:28:46.317Z,24.63
2022-12-14T02:30:09.310Z,25.42
2022-12-14T02:31:21.231Z,26.92
2022-12-14T02:32:46.744Z,21.05
2022-12-14T02:33:53.857Z,26.65
2022-12-14T02:35:02.032Z,24.80
2022-12-14T02:36:13.403Z,26.45
2022-12-14T02:37:24.312Z,23.90
2022-12-14T02:38:41.953Z,24.25
2022-12-14T02:39:57.042Z,30.55
2022-12-14T02:41:11.477Z,29.45
2022-12-14T02:42:15.348Z,25.38
2022-12-14T02:43:29.093Z,31.63
2022-12-14T02:44:39.188Z,27.42
2022-12-14T02:45:50.072Z,24.95
2022-12-14T02:46:58.016Z,28.17
2022-12-14T02:48:04.508Z,23.38
2022-12-14T02:49:13.734Z,27.52
2022-12-14T02:50:22.230Z,24.10
2022-12-14T02:51:30.716Z,27.10
2022-12-14T02:52:42.270Z,25.10
2022-12-14T02:53:51.301Z,27.15
2022-12-14T02:54:58.071Z,27.30
2022-12-14T02:56:05.262Z,25.65
2022-12-14T02:57:11.670Z,29.73
2022-12-14T02:58:20.514Z,24.45
2022-12-14T02:59:24.794Z,28.25
2022-12-14T03:00:29.438Z,25.13
2022-12-14T03:01:36.317Z,26.33
2022-12-14T03:02:43.098Z,26.60
2022-12-14T03:03:46.486Z,26.35
2022-12-14T03:04:50.173Z,27.52
2022-12-14T03:05:56.464Z,25.05
2022-12-14T03:07:03.744Z,27.10
2022-12-14T03:08:08.771Z,31.23
2022-12-14T03:09:17.616Z,32.95
2022-12-14T03:10:27.388Z,26.10
2022-12-14T03:11:36.106Z,25.92
2022-12-14T03:12:42.838Z,26.55
2022-12-14T03:13:51.314Z,24.55
2022-12-14T03:14:55.975Z,24.15
2022-12-14T03:16:04.256Z,26.55
2022-12-14T03:17:16.335Z,26.08
2022-12-14T03:18:25.485Z,26.98
2022-12-14T03:19:31.070Z,28.50
2022-12-14T03:20:36.832Z,25.35
2022-12-14T03:21:44.245Z,26.30
2022-12-14T03:22:52.902Z,27.45
2022-12-14T03:23:57.566Z,27.55
2022-12-14T03:25:08.919Z,26.17
2022-12-14T03:26:17.092Z,26.95
2022-12-14T03:27:24.182Z,25.88
2022-12-14T03:28:31.798Z,28.67
2022-12-14T03:29:45.368Z,29.80
2022-12-14T03:31:01.242Z,30.75
2022-12-14T03:32:10.665Z,29.63
2022-12-14T03:33:18.508Z,28.70
2022-12-14T03:34:26.900Z,26.15
2022-12-14T03:35:33.282Z,25.20
2022-12-14T03:36:42.865Z,26.23
2022-12-14T03:37:53.284Z,28.50
2022-12-14T03:39:01.216Z,27.15
2022-12-14T03:40:03.805Z,28.10
2022-12-14T03:41:15.916Z,27.38
2022-12-14T03:42:23.568Z,28.63
2022-12-14T03:43:33.018Z,26.98
2022-12-14T03:44:49.680Z,23.67
2022-12-14T03:46:01.156Z,28.40
2022-12-14T03:47:18.074Z,27.25
2022-12-14T03:48:31.393Z,28.13
2022-12-14T03:49:43.978Z,25.10
2022-12-14T03:50:53.445Z,28.48
2022-12-14T03:52:03.301Z,25.45
2022-12-14T03:53:12.732Z,25.63
2022-12-14T03:54:21.292Z,27.83
2022-12-14T03:55:30.800Z,26.50
2022-12-14T03:56:37.206Z,26.83
2022-12-14T03:57:51.479Z,30.55
2022-12-14T03:59:01.153Z,27.55
2022-12-14T04:00:09.126Z,28.52
2022-12-14T04:01:26.807Z,29.38
2022-12-14T04:02:40.732Z,28.80
2022-12-14T04:03:51.135Z,26.00
2022-12-14T04:04:57.816Z,25.98
2022-12-14T04:06:04.845Z,29.10
2022-12-14T04:07:14.550Z,28.80
2022-12-14T04:08:27.202Z,25.67
2022-12-14T04:09:33.358Z,26.60
2022-12-14T04:11:00.403Z,21.33
2022-12-14T04:12:25.178Z,27.63
2022-12-14T04:13:51.820Z,28.05
2022-12-14T04:15:17.623Z,32.15
2022-12-14T04:16:51.484Z,26.45
2022-12-14T04:18:17.154Z,26.88
2022-12-14T04:19:25.010Z,27.90
2022-12-14T04:20:30.024Z,27.08
2022-12-14T04:21:40.590Z,29.00
2022-12-14T04:22:49.592Z,30.13
2022-12-14T04:24:14.748Z,29.67
2022-12-14T04:25:39.488Z,26.20
2022-12-14T04:26:48.271Z,26.10
2022-12-14T04:27:55.332Z,25.08
2022-12-14T04:29:15.818Z,29.20
2022-12-14T04:30:18.990Z,29.63
2022-12-14T04:31:26.425Z,27.73
2022-12-14T04:32:34.930Z,27.75
2022-12-14T04:33:48.918Z,28.67
2022-12-14T04:34:55.848Z,30.02
2022-12-14T04:36:01.836Z,27.17
2022-12-14T04:37:09.645Z,30.05
2022-12-14T04:38:18.473Z,27.30
2022-12-14T04:39:29.393Z,27.05
2022-12-14T04:40:36.219Z,26.27
2022-12-14T04:41:43.731Z,30.13
2022-12-14T04:42:52.257Z,28.90
2022-12-14T04:43:58.978Z,27.60
2022-12-14T04:45:07.993Z,29.83
2022-12-14T04:46:15.107Z,26.60
2022-12-14T04:47:20.247Z,30.63
2022-12-14T04:48:28.624Z,25.90
2022-12-14T04:49:39.941Z,32.20
2022-12-14T04:50:48.570Z,30.77
2022-12-14T04:52:01.981Z,29.13
2022-12-14T04:53:12.873Z,25.52
2022-12-14T04:54:21.330Z,26.80
2022-12-14T04:55:28.023Z,29.30
2022-12-14T04:56:36.343Z,28.60
2022-12-14T04:57:45.844Z,26.02
2022-12-14T04:58:49.382Z,26.83
2022-12-14T04:59:51.734Z,30.48
2022-12-14T05:01:12.846Z,28.00
2022-12-14T05:02:22.856Z,26.48
2022-12-14T05:03:31.292Z,28.70
2022-12-14T05:04:55.217Z,29.80
2022-12-14T05:06:07.233Z,30.02
2022-12-14T05:07:19.952Z,27.45
2022-12-14T05:08:39.181Z,26.45
2022-12-14T05:09:46.534Z,27.98
2022-12-14T05:11:04.748Z,29.58
2022-12-14T05:12:21.225Z,27.65
2022-12-14T05:13:28.950Z,29.10
2022-12-14T05:14:37.370Z,27.95
2022-12-14T05:15:43.479Z,25.08
2022-12-14T05:16:45.676Z,27.45
2022-12-14T05:17:53.293Z,27.80
2022-12-14T05:18:55.483Z,30.95
2022-12-14T05:20:00.309Z,25.05
2022-12-14T05:21:02.323Z,26.77
2022-12-14T05:22:08.013Z,29.40
2022-12-14T05:23:11.347Z,24.77
2022-12-14T05:24:13.767Z,27.73
2022-12-14T05:25:17.082Z,28.60
2022-12-14T05:26:19.073Z,29.60
2022-12-14T05:27:22.273Z,28.27
2022-12-14T05:28:24.361Z,28.63
2022-12-14T05:29:27.445Z,28.58
2022-12-14T05:30:30.807Z,30.67
2022-12-14T05:31:32.973Z,27.85
2022-12-14T05:32:36.072Z,29.83
2022-12-14T05:33:38.220Z,26.88
2022-12-14T05:34:41.388Z,30.17
2022-12-14T05:35:44.905Z,27.65
2022-12-14T05:36:48.261Z,26.17
2022-12-14T05:37:51.472Z,26.10
2022-12-14T05:38:53.618Z,29.20
2022-12-14T05:39:56.747Z,27.33
2022-12-14T05:40:59.050Z,27.23
2022-12-14T05:42:02.260Z,27.75
2022-12-14T05:43:05.448Z,28.25
2022-12-14T05:44:08.937Z,28.25
2022-12-14T05:45:12.361Z,29.20
2022-12-14T05:46:15.540Z,34.17
2022-12-14T05:47:18.950Z,28.45
2022-12-14T05:48:21.028Z,24.45
2022-12-14T05:49:25.327Z,31.05
2022-12-14T05:50:27.585Z,30.90
2022-12-14T05:51:32.887Z,29.55
2022-12-14T05:52:35.364Z,29.05
2022-12-14T05:53:39.541Z,29.20
2022-12-14T05:54:41.671Z,28.83
2022-12-14T05:55:48.202Z,26.80
2022-12-14T05:56:51.437Z,30.88
2022-12-14T05:57:54.719Z,27.25
2022-12-14T05:58:57.116Z,28.15
2022-12-14T06:00:00.446Z,32.05
2022-12-14T06:01:04.123Z,29.27
2022-12-14T06:02:07.686Z,32.80
2022-12-14T06:03:10.470Z,26.38
2022-12-14T06:04:14.585Z,25.63
2022-12-14T06:05:17.011Z,28.88
2022-12-14T06:06:20.415Z,28.88
2022-12-14T06:07:27.962Z,29.45
2022-12-14T06:08:34.109Z,29.25
2022-12-14T06:09:37.390Z,28.88
2022-12-14T06:10:39.506Z,29.58
2022-12-14T06:11:42.892Z,29.35
2022-12-14T06:12:44.883Z,28.55
2022-12-14T06:13:48.936Z,30.77
2022-12-14T06:14:51.470Z,25.83
2022-12-14T06:15:54.691Z,30.45
2022-12-14T06:16:57.942Z,27.17
2022-12-14T06:17:59.959Z,30.55
2022-12-14T06:19:05.394Z,29.38
2022-12-14T06:20:09.167Z,31.58
2022-12-14T06:21:11.399Z,31.42
2022-12-14T06:22:14.508Z,31.50
2022-12-14T06:23:17.957Z,32.85
2022-12-14T06:24:21.124Z,29.50
2022-12-14T06:25:23.117Z,30.83
2022-12-14T06:26:27.351Z,34.28
2022-12-14T06:27:29.430Z,28.33
2022-12-14T06:28:32.555Z,31.38
2022-12-14T06:29:35.693Z,31.13
2022-12-14T06:30:37.749Z,31.58
2022-12-14T06:31:41.046Z,35.33
2022-12-14T06:32:43.159Z,32.88
2022-12-14T06:33:46.495Z,33.88
2022-12-14T06:34:49.859Z,34.38
2022-12-14T06:35:52.011Z,30.45
2022-12-14T06:36:55.139Z,30.33
2022-12-14T06:37:57.214Z,29.60
2022-12-14T06:39:04.454Z,31.17
2022-12-14T06:40:07.707Z,33.88
2022-12-14T06:41:10.933Z,35.70
2022-12-14T06:42:14.141Z,35.47
2022-12-14T06:43:16.222Z,38.08
2022-12-14T06:44:19.536Z,34.10
2022-12-14T06:45:23.035Z,34.72
2022-12-14T06:46:25.823Z,36.55
2022-12-14T06:47:28.948Z,33.88
2022-12-14T06:48:30.948Z,33.58
2022-12-14T06:49:34.263Z,33.00
2022-12-14T06:50:36.434Z,33.65
2022-12-14T06:51:40.585Z,29.95
2022-12-14T06:52:43.407Z,34.90
2022-12-14T06:53:46.693Z,34.05
2022-12-14T06:54:50.079Z,32.40
2022-12-14T06:55:53.406Z,34.10
2022-12-14T06:56:56.669Z,33.70
2022-12-14T06:57:59.276Z,32.58
2022-12-14T06:59:02.609Z,31.35
2022-12-14T07:00:06.551Z,33.25
2022-12-14T07:01:12.104Z,31.30
2022-12-14T07:02:17.323Z,38.00
2022-12-14T07:03:20.818Z,35.28
2022-12-14T07:04:23.040Z,40.17
2022-12-14T07:05:26.272Z,33.20
2022-12-14T07:06:32.358Z,37.30
2022-12-14T07:07:36.122Z,35.83
2022-12-14T07:08:40.437Z,36.92
2022-12-14T07:09:42.485Z,39.08
2022-12-14T07:10:46.862Z,35.70
2022-12-14T07:11:52.098Z,33.53
2022-12-14T07:12:54.138Z,35.22
2022-12-14T07:13:57.623Z,36.72
2022-12-14T07:14:59.771Z,40.08
2022-12-14T07:16:04.796Z,36.95
2022-12-14T07:17:08.014Z,36.42
2022-12-14T07:18:10.041Z,37.50
2022-12-14T07:19:13.262Z,39.53
2022-12-14T07:20:16.660Z,35.30
2022-12-14T07:21:20.923Z,37.78
2022-12-14T07:22:24.040Z,36.78
2022-12-14T07:23:28.200Z,41.85
2022-12-14T07:24:31.518Z,37.70
2022-12-14T07:25:34.742Z,39.65
2022-12-14T07:26:38.395Z,38.13
2022-12-14T07:27:41.615Z,36.83
2022-12-14T07:28:43.954Z,37.58
2022-12-14T07:29:47.102Z,37.30
2022-12-14T07:30:49.132Z,43.42
2022-12-14T07:31:52.414Z,42.92
2022-12-14T07:32:54.421Z,39.50
2022-12-14T07:33:59.151Z,39.67
2022-12-14T07:35:01.278Z,38.85
2022-12-14T07:36:06.565Z,37.58
2022-12-14T07:37:09.590Z,40.20
2022-12-14T07:38:11.613Z,36.65
2022-12-14T07:39:15.625Z,35.35
2022-12-14T07:40:18.817Z,37.80
2022-12-14T07:41:23.669Z,32.35
2022-12-14T07:42:28.349Z,37.20
2022-12-14T07:43:36.264Z,45.92
2022-12-14T07:44:39.385Z,35.45
2022-12-14T07:45:41.438Z,38.38
2022-12-14T07:46:45.521Z,49.45
2022-12-14T07:47:47.584Z,39.45
2022-12-14T07:48:52.560Z,34.95
2022-12-14T07:49:55.569Z,37.22
2022-12-14T07:51:02.839Z,32.42
2022-12-14T07:52:05.911Z,37.72
2022-12-14T07:53:08.089Z,34.75
2022-12-14T07:54:12.738Z,33.47
2022-12-14T07:55:15.793Z,36.28
2022-12-14T07:56:20.306Z,33.30
2022-12-14T07:57:23.372Z,34.40
2022-12-14T07:58:26.105Z,43.50
2022-12-14T07:59:30.594Z,35.35
2022-12-14T08:00:32.601Z,32.92
2022-12-14T08:01:37.791Z,32.03
2022-12-14T08:02:41.099Z,34.67
2022-12-14T08:03:46.721Z,35.38
2022-12-14T08:04:49.938Z,36.80
2022-12-14T08:05:52.011Z,32.50
2022-12-14T08:06:55.043Z,37.25
2022-12-14T08:07:57.215Z,32.17
2022-12-14T08:09:00.911Z,39.13
2022-12-14T08:10:02.892Z,32.38
2022-12-14T08:11:06.995Z,35.50
2022-12-14T08:12:10.036Z,38.63
2022-12-14T08:13:12.048Z,40.38
2022-12-14T08:14:18.285Z,33.60
2022-12-14T08:15:21.718Z,35.85
2022-12-14T08:16:25.953Z,33.75
2022-12-14T08:17:29.028Z,39.33
2022-12-14T08:18:33.304Z,33.28
2022-12-14T08:19:36.434Z,33.05
2022-12-14T08:20:38.452Z,36.00
2022-12-14T08:21:41.873Z,34.63
2022-12-14T08:22:45.274Z,34.75
2022-12-14T08:23:47.828Z,31.90
2022-12-14T08:24:50.990Z,32.90
2022-12-14T08:25:54.024Z,36.58
2022-12-14T08:26:57.237Z,37.35
2022-12-14T08:27:59.643Z,31.13
2022-12-14T08:29:02.917Z,31.60
2022-12-14T08:30:07.137Z,36.35
2022-12-14T08:31:13.148Z,38.88
2022-12-14T08:32:16.471Z,33.78
2022-12-14T08:33:20.045Z,31.45
2022-12-14T08:34:23.988Z,35.90
2022-12-14T08:35:27.129Z,37.20
2022-12-14T08:36:32.824Z,29.88
2022-12-14T08:37:35.964Z,33.58
2022-12-14T08:38:38.577Z,34.15
2022-12-14T08:39:41.753Z,33.65
2022-12-14T08:40:44.928Z,33.00
2022-12-14T08:41:48.234Z,34.75
2022-12-14T08:42:50.628Z,35.63
2022-12-14T08:43:55.141Z,35.05
2022-12-14T08:44:58.236Z,37.03
2022-12-14T08:46:00.417Z,36.65
2022-12-14T08:47:05.364Z,39.50
2022-12-14T08:48:07.563Z,34.25
2022-12-14T08:49:12.104Z,38.05
2022-12-14T08:50:15.614Z,36.38
2022-12-14T08:51:18.338Z,36.40
2022-12-14T08:52:22.991Z,32.05
2022-12-14T08:53:26.840Z,33.80
2022-12-14T08:54:30.420Z,38.58
2022-12-14T08:55:38.223Z,32.75
2022-12-14T08:56:42.096Z,35.85
2022-12-14T08:57:45.640Z,32.25
2022-12-14T08:58:49.201Z,34.55
2022-12-14T09:00:01.168Z,32.42
2022-12-14T09:01:06.953Z,32.40
2022-12-14T09:03:45.755Z,31.38
2022-12-14T09:04:49.109Z,31.17
2022-12-14T09:05:52.429Z,36.97
2022-12-14T09:06:56.437Z,33.95
2022-12-14T09:07:59.718Z,32.40
2022-12-14T09:09:03.070Z,35.13
2022-12-14T09:10:08.107Z,31.15
2022-12-14T09:11:14.035Z,33.45
2022-12-14T09:12:17.232Z,32.40
2022-12-14T09:13:19.495Z,31.98
2022-12-14T09:14:22.816Z,32.40
2022-12-14T09:15:26.366Z,32.00
2022-12-14T09:16:28.620Z,32.25
2022-12-14T09:17:31.990Z,38.10
2022-12-14T09:18:35.799Z,34.22
2022-12-14T09:19:40.511Z,36.33
2022-12-14T09:20:43.673Z,34.85
2022-12-14T09:21:46.919Z,33.97
2022-12-14T09:22:53.099Z,33.30
2022-12-14T09:23:59.524Z,32.85
2022-12-14T09:25:04.622Z,30.77
2022-12-14T09:26:08.644Z,31.95
2022-12-14T09:27:11.880Z,34.85
2022-12-14T09:28:15.272Z,37.72
2022-12-14T09:29:19.338Z,36.00
2022-12-14T09:30:26.590Z,37.65
2022-12-14T09:31:30.410Z,36.17
2022-12-14T09:32:33.631Z,37.03
2022-12-14T09:33:36.892Z,36.67
2022-12-14T09:34:41.433Z,37.35
2022-12-14T09:35:43.535Z,32.67
2022-12-14T09:36:46.957Z,33.60
2022-12-14T09:37:49.205Z,35.67
2022-12-14T09:38:55.343Z,31.90
2022-12-14T09:39:58.885Z,34.75
2022-12-14T09:41:07.469Z,34.88
2022-12-14T09:42:26.227Z,35.03
2022-12-14T09:43:39.241Z,33.63
2022-12-14T09:44:54.304Z,32.67
2022-12-14T09:46:15.664Z,35.33
2022-12-14T09:47:22.093Z,34.17
2022-12-14T09:48:26.887Z,33.17
2022-12-14T09:49:32.531Z,38.35
2022-12-14T09:50:38.371Z,36.90
2022-12-14T09:51:40.677Z,31.55
2022-12-14T09:54:16.057Z,35.85
2022-12-14T09:55:23.893Z,36.05
2022-12-14T09:56:27.592Z,36.75
2022-12-14T09:57:36.229Z,34.50
2022-12-14T09:58:42.248Z,35.95
2022-12-14T09:59:45.681Z,32.60
2022-12-14T10:00:55.153Z,31.85
2022-12-14T10:02:29.596Z,34.05
2022-12-14T10:03:44.255Z,30.45
2022-12-14T10:04:57.214Z,30.13
2022-12-14T10:06:21.293Z,38.15
2022-12-14T10:07:34.258Z,32.78
2022-12-14T10:08:43.313Z,32.25
2022-12-14T10:09:55.674Z,34.58
2022-12-14T10:11:08.136Z,35.60
2022-12-14T10:12:26.331Z,31.98
2022-12-14T10:13:42.877Z,32.90
2022-12-14T10:15:03.348Z,35.05
2022-12-14T10:16:17.118Z,28.45
2022-12-14T10:17:30.380Z,34.20
2022-12-14T10:19:01.587Z,33.50
2022-12-14T10:20:18.348Z,39.70
2022-12-14T10:21:26.087Z,33.70
2022-12-14T10:22:33.824Z,30.15
2022-12-14T10:23:36.368Z,34.25
2022-12-14T10:24:43.877Z,35.22
2022-12-14T10:25:48.788Z,33.28
2022-12-14T10:26:54.905Z,33.50
2022-12-14T10:28:15.503Z,31.65
2022-12-14T10:29:26.863Z,36.72
2022-12-14T10:30:31.189Z,32.22
2022-12-14T10:31:40.633Z,34.33
2022-12-14T10:32:48.855Z,29.67
2022-12-14T10:33:54.239Z,33.63
2022-12-14T10:34:58.807Z,36.75
2022-12-14T10:36:10.233Z,35.88
2022-12-14T10:37:25.590Z,31.25
2022-12-14T10:38:35.367Z,30.33
2022-12-14T10:39:50.727Z,35.65
2022-12-14T10:40:59.143Z,32.10
2022-12-14T10:42:09.782Z,36.47
2022-12-14T10:43:28.395Z,34.53
2022-12-14T10:44:41.204Z,33.13
2022-12-14T10:45:52.201Z,33.28
2022-12-14T10:47:00.559Z,33.03
2022-12-14T10:48:27.329Z,28.65
2022-12-14T10:49:37.488Z,32.97
2022-12-14T10:50:53.850Z,29.58
2022-12-14T10:52:03.603Z,32.95
2022-12-14T10:53:17.442Z,31.88
2022-12-14T10:54:33.814Z,31.83
2022-12-14T10:55:41.876Z,29.50
2022-12-14T10:56:49.880Z,30.85
2022-12-14T10:57:53.443Z,30.13
2022-12-14T10:59:38.852Z,31.80
2022-12-14T11:00:45.519Z,32.55
2022-12-14T11:01:49.988Z,33.58
2022-12-14T11:02:56.879Z,37.38
2022-12-14T11:03:59.142Z,37.28
2022-12-14T11:05:11.916Z,36.88
2022-12-14T11:06:19.709Z,34.28
2022-12-14T11:07:25.424Z,34.83
2022-12-14T11:08:42.126Z,29.88
2022-12-14T11:09:48.726Z,29.30
2022-12-14T11:11:08.123Z,31.00
2022-12-14T11:12:20.364Z,25.20
2022-12-14T11:13:23.680Z,31.30
2022-12-14T11:14:27.359Z,36.83
2022-12-14T11:15:33.678Z,38.58
2022-12-14T11:16:39.296Z,34.80
2022-12-14T11:17:45.413Z,33.45
2022-12-14T11:18:58.891Z,31.52
2022-12-14T11:20:20.875Z,29.98
2022-12-14T11:21:31.110Z,28.77
2022-12-14T11:22:45.803Z,27.95
2022-12-14T11:23:56.283Z,30.17
2022-12-14T11:24:59.773Z,32.03
2022-12-14T11:26:06.111Z,33.15
2022-12-14T11:27:12.336Z,28.83
2022-12-14T11:28:36.483Z,31.73
2022-12-14T11:29:42.810Z,33.33
2022-12-14T11:30:59.637Z,35.90
2022-12-14T11:32:04.879Z,31.75
2022-12-14T11:33:14.534Z,29.75
2022-12-14T11:34:30.417Z,33.30
2022-12-14T11:35:32.803Z,33.53
2022-12-14T11:36:38.222Z,32.92
2022-12-14T11:37:42.978Z,29.92
2022-12-14T11:38:58.170Z,34.17
2022-12-14T11:40:04.084Z,28.25
2022-12-14T11:41:12.046Z,31.67
2022-12-14T11:42:19.055Z,29.42
2022-12-14T11:43:28.041Z,25.55
2022-12-14T11:44:34.017Z,28.42
2022-12-14T11:45:38.569Z,29.70
2022-12-14T11:46:44.978Z,31.40
2022-12-14T11:48:08.626Z,29.88
2022-12-14T11:49:23.504Z,26.00
2022-12-14T11:50:32.345Z,28.77
2022-12-14T11:51:35.868Z,28.27
2022-12-14T11:52:43.578Z,24.65
2022-12-14T11:54:04.731Z,27.45
2022-12-14T11:55:14.034Z,28.33
2022-12-14T11:56:19.676Z,24.95
2022-12-14T11:57:27.598Z,27.30
2022-12-14T11:58:33.640Z,26.35
2022-12-14T11:59:41.467Z,32.15
2022-12-14T12:00:48.093Z,29.13
2022-12-14T12:01:51.525Z,31.08
2022-12-14T12:03:01.896Z,29.17
2022-12-14T12:04:05.543Z,23.58
2022-12-14T12:05:12.770Z,30.33
2022-12-14T12:06:28.380Z,31.80
2022-12-14T12:07:37.692Z,25.50
2022-12-14T12:08:42.825Z,30.58
2022-12-14T12:09:46.739Z,29.80
2022-12-14T12:10:52.392Z,30.63
2022-12-14T12:11:58.094Z,30.77
2022-12-14T12:13:03.302Z,29.33
2022-12-14T12:14:26.577Z,29.30
2022-12-14T12:15:37.537Z,26.45
2022-12-14T12:16:44.745Z,25.02
2022-12-14T12:17:51.514Z,28.80
2022-12-14T12:18:58.416Z,25.50
2022-12-14T12:20:00.903Z,24.27
2022-12-14T12:21:09.932Z,28.08
2022-12-14T12:22:15.782Z,29.65
2022-12-14T12:23:23.848Z,31.05
2022-12-14T12:24:30.638Z,31.25
2022-12-14T12:25:37.780Z,29.85
2022-12-14T12:26:44.089Z,30.55
2022-12-14T12:28:03.307Z,30.40
2022-12-14T12:29:15.040Z,28.08
2022-12-14T12:30:28.410Z,25.15
2022-12-14T12:31:36.567Z,27.90
2022-12-14T12:32:49.939Z,28.70
2022-12-14T12:33:59.305Z,29.58
2022-12-14T12:35:12.421Z,28.70
2022-12-14T12:36:23.932Z,31.95
2022-12-14T12:37:34.635Z,30.35
2022-12-14T12:38:49.641Z,30.85
2022-12-14T12:39:58.583Z,29.33
2022-12-14T12:41:14.126Z,31.65
2022-12-14T12:42:25.834Z,27.88
2022-12-14T12:43:35.264Z,30.30
2022-12-14T12:44:49.619Z,29.38
2022-12-14T12:45:57.681Z,31.08
2022-12-14T12:47:24.325Z,30.27
2022-12-14T12:48:34.090Z,26.75
2022-12-14T12:49:37.722Z,32.22
2022-12-14T12:50:49.939Z,30.13
2022-12-14T12:51:59.039Z,30.35
2022-12-14T12:53:06.686Z,31.42
2022-12-14T12:54:15.802Z,31.10
2022-12-14T12:55:22.343Z,34.50
2022-12-14T12:56:31.698Z,34.35
2022-12-14T12:57:41.787Z,31.10
2022-12-14T12:58:52.342Z,37.10
2022-12-14T12:59:59.415Z,36.20
2022-12-14T13:01:08.731Z,36.22
2022-12-14T13:02:23.153Z,34.53
2022-12-14T13:03:34.408Z,30.95
2022-12-14T13:04:41.614Z,39.17
2022-12-14T13:05:47.678Z,32.45
2022-12-14T13:06:55.809Z,32.65
2022-12-14T13:08:03.144Z,37.80
2022-12-14T13:09:17.813Z,39.03
2022-12-14T13:10:23.646Z,34.53
2022-12-14T13:11:33.442Z,42.83
2022-12-14T13:12:39.587Z,40.70
2022-12-14T13:13:49.951Z,33.20
2022-12-14T13:14:56.893Z,38.80
2022-12-14T13:16:10.002Z,33.65
2022-12-14T13:17:26.168Z,33.25
2022-12-14T13:18:57.616Z,31.73
2022-12-14T13:19:58.803Z,32.90
2022-12-14T13:21:09.309Z,35.67
2022-12-14T13:22:15.050Z,35.30
2022-12-14T13:23:44.376Z,35.67
2022-12-14T13:24:44.172Z,39.38
2022-12-14T13:25:54.626Z,39.13
2022-12-14T13:27:36.500Z,32.17
2022-12-14T13:28:54.688Z,34.47
2022-12-14T13:30:12.339Z,33.30
2022-12-14T13:31:28.357Z,36.58
2022-12-14T13:32:50.520Z,35.22
2022-12-14T13:34:11.515Z,30.27
2022-12-14T13:35:38.606Z,31.98
2022-12-14T13:37:24.601Z,33.72
2022-12-14T13:39:35.932Z,33.58
2022-12-14T13:40:56.403Z,32.75
2022-12-14T13:42:05.497Z,38.65
2022-12-14T13:43:36.377Z,37.08
2022-12-14T13:44:56.943Z,36.72
2022-12-14T13:46:07.302Z,31.77
2022-12-14T13:47:15.915Z,34.15
2022-12-14T13:48:24.990Z,31.77
2022-12-14T13:49:29.337Z,32.15
2022-12-14T13:50:38.188Z,34.00
2022-12-14T13:51:50.334Z,35.53
2022-12-14T13:52:59.427Z,37.20
2022-12-14T13:54:05.688Z,39.92
2022-12-14T13:55:26.876Z,38.75
2022-12-14T13:56:33.581Z,36.88
2022-12-14T13:57:37.595Z,32.70
2022-12-14T13:58:44.316Z,42.17
2022-12-14T13:59:52.135Z,36.83
2022-12-14T14:01:00.591Z,34.10
2022-12-14T14:02:07.825Z,32.53
2022-12-14T14:03:45.042Z,46.55
2022-12-14T14:04:48.413Z,60.78
2022-12-14T14:05:57.158Z,44.95
2022-12-14T14:07:34.079Z,33.55
2022-12-14T14:08:42.102Z,36.35
2022-12-14T14:10:02.729Z,34.65
2022-12-14T14:11:45.711Z,32.42
2022-12-14T14:12:48.959Z,38.08
2022-12-14T14:14:13.409Z,40.85
2022-12-14T14:15:34.212Z,39.30
2022-12-14T14:16:42.288Z,36.25
2022-12-14T14:17:46.030Z,30.73
2022-12-14T14:18:55.517Z,32.75
2022-12-14T14:19:59.244Z,36.05
2022-12-14T14:21:38.968Z,36.40
2022-12-14T14:23:34.365Z,37.67
2022-12-14T14:24:55.645Z,36.35
2022-12-14T14:26:24.696Z,34.28
2022-12-14T14:27:31.941Z,30.83
2022-12-14T14:28:34.666Z,37.05
2022-12-14T14:29:45.891Z,36.05
2022-12-14T14:30:53.331Z,39.72
2022-12-14T14:31:59.819Z,43.30
2022-12-14T14:33:36.263Z,39.00
2022-12-14T14:34:40.111Z,40.70
2022-12-14T14:35:43.789Z,38.58
2022-12-14T14:36:46.787Z,44.13